createdAt,value
2022-09-05T00:02:03.293Z,12.28
2022-09-05T00:05:09.964Z,12.32
2022-09-05T00:08:19.693Z,12.30
2022-09-05T00:11:41.346Z,12.30
2022-09-05T00:15:14.820Z,12.29
2022-09-05T00:21:27.102Z,12.24
2022-09-05T00:24:21.928Z,12.23
2022-09-05T00:25:31.393Z,12.22
2022-09-05T00:28:32.198Z,12.23
2022-09-05T00:31:55.598Z,12.26
2022-09-05T00:34:36.231Z,12.22
2022-09-05T00:37:28.392Z,12.31
2022-09-05T00:40:19.134Z,12.28
2022-09-05T00:42:53.596Z,12.23
2022-09-05T00:45:31.054Z,12.21
2022-09-05T00:48:08.786Z,12.25
2022-09-05T00:50:47.005Z,12.32
2022-09-05T00:53:36.670Z,12.36
2022-09-05T00:56:46.467Z,12.35
2022-09-05T01:00:03.947Z,12.33
2022-09-05T01:02:53.569Z,12.32
2022-09-05T01:06:00.622Z,12.34
2022-09-05T01:08:56.212Z,12.33
2022-09-05T01:12:05.528Z,12.39
2022-09-05T01:15:01.541Z,12.36
2022-09-05T01:17:29.779Z,12.39
2022-09-05T01:20:38.645Z,12.39
2022-09-05T01:23:43.820Z,12.38
2022-09-05T01:26:41.076Z,12.35
2022-09-05T01:29:38.592Z,12.32
2022-09-05T01:32:33.092Z,12.25
2022-09-05T01:35:39.398Z,12.22
2022-09-05T01:38:35.638Z,12.22
2022-09-05T01:41:33.683Z,12.20
2022-09-05T01:44:16.327Z,12.18
2022-09-05T01:46:52.562Z,12.18
2022-09-05T01:49:25.300Z,12.22
2022-09-05T01:52:15.669Z,12.21
2022-09-05T01:55:13.649Z,12.14
2022-09-05T01:57:53.369Z,12.12
2022-09-05T02:00:39.445Z,12.15
2022-09-05T02:03:23.591Z,12.12
2022-09-05T02:06:03.627Z,12.14
2022-09-05T02:08:41.857Z,12.11
2022-09-05T02:11:16.514Z,12.11
2022-09-05T02:14:33.835Z,12.07
2022-09-05T02:17:50.067Z,12.22
2022-09-05T02:20:23.791Z,12.19
2022-09-05T02:23:44.632Z,12.16
2022-09-05T02:26:17.280Z,12.11
2022-09-05T02:29:00.502Z,12.05
2022-09-05T02:31:57.679Z,12.02
2022-09-05T02:34:41.237Z,12.02
2022-09-05T02:38:03.265Z,11.98
2022-09-05T02:45:08.711Z,11.95
2022-09-05T02:45:13.250Z,11.96
2022-09-05T02:47:06.538Z,11.94
2022-09-05T02:52:42.433Z,11.95
2022-09-05T02:57:39.469Z,11.92
2022-09-05T02:57:42.872Z,11.98
2022-09-05T02:59:31.010Z,11.89
2022-09-05T03:05:30.482Z,11.85
2022-09-05T03:08:27.080Z,11.79
2022-09-05T03:11:36.811Z,11.79
2022-09-05T03:14:42.644Z,11.86
2022-09-05T03:17:48.277Z,11.86
2022-09-05T03:21:09.115Z,11.88
2022-09-05T03:24:22.774Z,11.87
2022-09-05T03:27:15.934Z,11.80
2022-09-05T03:29:44.385Z,11.74
2022-09-05T03:32:50.225Z,12.01
2022-09-05T03:35:55.738Z,12.02
2022-09-05T03:39:03.036Z,12.14
2022-09-05T03:41:50.258Z,12.08
2022-09-05T03:44:42.097Z,12.16
2022-09-05T03:47:48.369Z,12.21
2022-09-05T03:56:48.643Z,12.22
2022-09-05T03:57:17.818Z,12.28
2022-09-05T03:57:33.711Z,12.22
2022-09-05T04:00:21.802Z,12.27
2022-09-05T04:08:14.567Z,12.33
2022-09-05T04:08:19.337Z,12.33
2022-09-05T04:10:30.432Z,12.45
2022-09-05T04:13:02.230Z,12.59
2022-09-05T04:15:40.377Z,12.66
2022-09-05T04:18:38.703Z,12.82
2022-09-05T04:21:15.934Z,12.90
2022-09-05T04:24:05.597Z,13.00
2022-09-05T04:27:15.821Z,13.07
2022-09-05T04:30:39.377Z,13.22
2022-09-05T04:33:10.502Z,13.31
2022-09-05T04:36:18.293Z,13.41
2022-09-05T04:39:23.284Z,13.44
2022-09-05T04:41:58.881Z,13.61
2022-09-05T04:44:48.459Z,13.61
2022-09-05T04:47:43.023Z,13.74
2022-09-05T04:50:23.709Z,13.76
2022-09-05T04:53:13.840Z,13.81
2022-09-05T04:55:50.822Z,13.90
2022-09-05T04:59:25.613Z,13.94
2022-09-05T05:06:02.109Z,14.07
2022-09-05T05:06:18.133Z,14.13
2022-09-05T05:07:31.675Z,14.28
2022-09-05T05:10:30.363Z,14.29
2022-09-05T05:17:56.859Z,14.30
2022-09-05T05:18:11.320Z,14.40
2022-09-05T05:19:21.731Z,14.52
2022-09-05T05:21:58.539Z,14.56
2022-09-05T05:24:34.204Z,14.72
2022-09-05T05:27:31.909Z,14.82
2022-09-05T05:30:08.144Z,14.89
2022-09-05T05:32:46.823Z,14.96
2022-09-05T05:35:48.206Z,15.09
2022-09-05T05:38:32.059Z,15.16
2022-09-05T05:41:26.986Z,15.20
2022-09-05T05:44:16.163Z,15.36
2022-09-05T05:47:01.027Z,15.45
2022-09-05T05:50:01.555Z,15.55
2022-09-05T05:53:43.238Z,15.70
2022-09-05T05:56:46.081Z,15.79
2022-09-05T05:59:56.651Z,15.94
2022-09-05T06:02:42.615Z,16.05
2022-09-05T06:05:28.726Z,16.03
2022-09-05T06:09:30.426Z,16.12
2022-09-05T06:14:51.252Z,16.16
2022-09-05T06:15:27.286Z,16.50
2022-09-05T06:18:20.058Z,16.73
2022-09-05T06:22:08.492Z,16.64
2022-09-05T06:24:45.942Z,16.78
2022-09-05T06:28:17.696Z,16.84
2022-09-05T06:30:57.273Z,16.89
2022-09-05T06:34:32.859Z,17.10
2022-09-05T06:37:44.041Z,17.20
2022-09-05T06:40:51.457Z,17.41
2022-09-05T06:43:56.372Z,17.64
2022-09-05T06:46:55.479Z,17.83
2022-09-05T06:49:38.190Z,17.86
2022-09-05T06:52:38.141Z,17.99
2022-09-05T06:55:09.121Z,18.15
2022-09-05T06:58:12.798Z,18.37
2022-09-05T07:00:59.991Z,18.62
2022-09-05T07:03:47.190Z,18.84
2022-09-05T07:06:48.039Z,18.98
2022-09-05T07:09:44.165Z,18.97
2022-09-05T07:12:40.642Z,18.70
2022-09-05T07:15:14.514Z,19.08
2022-09-05T07:18:14.269Z,19.28
2022-09-05T07:21:15.898Z,19.47
2022-09-05T07:24:12.697Z,19.57
2022-09-05T07:26:53.657Z,19.49
2022-09-05T07:30:00.725Z,19.46
2022-09-05T07:32:41.937Z,19.46
2022-09-05T07:35:38.467Z,19.50
2022-09-05T07:38:49.038Z,19.60
2022-09-05T07:41:25.727Z,19.94
2022-09-05T07:44:11.211Z,19.83
2022-09-05T07:46:41.586Z,19.76
2022-09-05T07:49:16.449Z,19.89
2022-09-05T07:56:56.644Z,20.01
2022-09-05T07:57:06.509Z,19.67
2022-09-05T07:57:51.970Z,19.62
2022-09-05T08:00:29.655Z,19.85
2022-09-05T08:03:10.724Z,20.01
2022-09-05T08:05:49.952Z,20.23
2022-09-05T08:09:18.099Z,20.21
2022-09-05T08:11:37.503Z,20.29
2022-09-05T08:14:38.517Z,20.57
2022-09-05T08:16:54.143Z,20.60
2022-09-05T08:19:50.289Z,20.66
2022-09-05T08:22:23.760Z,20.65
2022-09-05T08:25:17.617Z,20.76
2022-09-05T08:28:25.377Z,20.87
2022-09-05T08:31:15.171Z,21.01
2022-09-05T08:33:44.260Z,20.88
2022-09-05T08:36:26.401Z,21.12
2022-09-05T08:38:58.490Z,21.06
2022-09-05T08:41:50.745Z,21.27
2022-09-05T08:46:40.815Z,21.55
2022-09-05T08:47:28.478Z,21.75
2022-09-05T08:50:43.843Z,21.90
2022-09-05T08:53:46.498Z,22.01
2022-09-05T08:56:29.231Z,22.12
2022-09-05T09:17:51.853Z,22.52
2022-09-05T09:20:57.545Z,22.62
2022-09-05T09:23:44.287Z,22.87
2022-09-05T09:26:28.416Z,22.91
2022-09-05T09:29:10.649Z,23.14
2022-09-05T09:32:04.143Z,23.21
2022-09-05T09:35:12.417Z,23.39
2022-09-05T09:38:07.800Z,23.47
2022-09-05T09:41:13.647Z,23.53
2022-09-05T09:44:12.758Z,23.47
2022-09-05T09:46:52.040Z,23.55
2022-09-05T09:49:55.654Z,23.78
2022-09-05T09:52:55.087Z,23.49
2022-09-05T09:55:54.631Z,23.58
2022-09-05T09:59:00.086Z,23.38
2022-09-05T10:04:31.210Z,22.47
2022-09-05T10:10:44.491Z,22.87
2022-09-05T10:10:49.034Z,23.00
2022-09-05T10:16:49.956Z,23.58
2022-09-05T10:20:08.715Z,23.82
2022-09-05T10:23:26.007Z,23.99
2022-09-05T10:26:17.887Z,23.67
2022-09-05T10:29:41.685Z,23.84
2022-09-05T10:35:07.717Z,24.07
2022-09-05T10:35:45.758Z,23.65
2022-09-05T10:38:41.086Z,23.66
2022-09-05T10:41:30.740Z,23.52
2022-09-05T10:44:05.396Z,23.30
2022-09-05T10:46:58.200Z,23.08
2022-09-05T10:49:38.004Z,22.79
2022-09-05T10:52:27.861Z,23.23
2022-09-05T10:55:22.152Z,23.28
2022-09-05T10:58:19.711Z,23.11
2022-09-05T11:02:29.554Z,22.94
2022-09-05T11:05:05.358Z,22.85
2022-09-05T11:08:07.809Z,22.84
2022-09-05T11:11:28.455Z,22.64
2022-09-05T11:14:37.205Z,22.86
2022-09-05T11:17:41.809Z,22.91
2022-09-05T11:21:00.574Z,23.14
2022-09-05T11:23:37.693Z,23.33
2022-09-05T11:26:31.483Z,23.54
2022-09-05T11:29:12.970Z,23.51
2022-09-05T11:34:04.200Z,23.38
2022-09-05T11:39:54.233Z,23.56
2022-09-05T11:40:00.000Z,23.71
2022-09-05T11:41:59.230Z,23.71
2022-09-05T11:44:53.720Z,23.77
2022-09-05T11:48:03.117Z,23.64
2022-09-05T11:51:08.121Z,23.88
2022-09-05T11:54:27.198Z,24.13
2022-09-05T11:57:34.751Z,24.17
2022-09-05T12:00:32.125Z,24.50
2022-09-05T12:03:59.653Z,24.51
2022-09-05T12:07:01.275Z,24.67
2022-09-05T12:10:46.074Z,24.68
2022-09-05T12:13:47.707Z,24.87
2022-09-05T12:16:39.009Z,25.13
2022-09-05T12:19:53.526Z,25.40
2022-09-05T12:22:37.954Z,25.70
2022-09-05T12:27:35.403Z,26.49
2022-09-05T12:29:26.610Z,26.69
2022-09-05T12:32:07.319Z,26.82
2022-09-05T12:36:10.117Z,27.68
2022-09-05T12:40:05.119Z,28.11
2022-09-05T12:41:37.770Z,28.60
2022-09-05T12:43:57.342Z,28.59
2022-09-05T12:46:34.742Z,29.04
2022-09-05T12:49:14.632Z,29.34
2022-09-05T12:52:07.929Z,29.47
2022-09-05T12:54:57.007Z,29.81
2022-09-05T13:00:20.135Z,29.25
2022-09-05T13:03:08.222Z,29.36
2022-09-05T13:03:33.690Z,29.54
2022-09-05T13:06:25.544Z,29.13
2022-09-05T13:09:07.809Z,29.14
2022-09-05T13:14:53.084Z,29.50
2022-09-05T13:15:29.197Z,29.87
2022-09-05T13:18:31.146Z,29.16
2022-09-05T13:21:36.105Z,29.17
2022-09-05T13:27:43.171Z,28.96
2022-09-05T13:36:14.177Z,29.01
2022-09-05T13:38:15.037Z,28.74
2022-09-05T13:38:17.983Z,28.88
2022-09-05T13:40:27.420Z,28.68
2022-09-05T13:43:45.758Z,28.46
2022-09-05T13:46:58.212Z,28.53
2022-09-05T13:49:49.413Z,29.66
2022-09-05T13:53:00.955Z,29.83
2022-09-05T13:56:03.173Z,29.00
2022-09-05T13:58:57.319Z,28.97
2022-09-05T14:02:25.143Z,28.46
2022-09-05T14:05:25.851Z,27.64
2022-09-05T14:08:44.530Z,27.42
2022-09-05T14:11:59.352Z,27.39
2022-09-05T14:15:14.043Z,26.81
2022-09-05T14:18:20.078Z,26.51
2022-09-05T14:21:19.322Z,26.24
2022-09-05T14:24:03.235Z,25.95
2022-09-05T14:27:12.754Z,25.13
2022-09-05T14:30:36.943Z,24.64
2022-09-05T14:37:41.990Z,24.20
2022-09-05T14:37:55.498Z,24.19
2022-09-05T14:40:29.536Z,23.79
2022-09-05T14:43:38.043Z,23.66
2022-09-05T14:46:17.705Z,23.68
2022-09-05T14:49:25.587Z,23.74
2022-09-05T14:52:03.956Z,23.29
2022-09-05T15:02:42.424Z,22.96
2022-09-05T15:02:46.049Z,22.93
2022-09-05T15:07:25.484Z,22.66
2022-09-05T15:12:18.914Z,22.70
2022-09-05T15:13:12.296Z,22.64
2022-09-05T15:16:00.683Z,22.64
2022-09-05T15:18:54.454Z,22.46
2022-09-05T15:21:44.492Z,22.48
2022-09-05T15:24:24.663Z,22.18
2022-09-05T15:27:09.629Z,22.05
2022-09-05T15:29:48.415Z,21.89
2022-09-05T15:32:30.985Z,21.68
2022-09-05T15:35:02.588Z,21.60
2022-09-05T15:37:41.388Z,21.38
2022-09-05T15:40:24.486Z,21.35
2022-09-05T15:43:04.456Z,21.24
2022-09-05T15:45:42.418Z,21.03
2022-09-05T15:48:33.968Z,20.86
2022-09-05T15:51:32.808Z,20.70
2022-09-05T15:54:08.660Z,20.65
2022-09-05T15:56:53.117Z,20.51
2022-09-05T15:59:48.126Z,20.47
2022-09-05T16:02:24.702Z,20.36
2022-09-05T16:10:33.646Z,20.22
2022-09-05T16:10:43.607Z,20.08
2022-09-05T16:12:08.952Z,19.99
2022-09-05T16:16:32.320Z,19.99
2022-09-05T16:23:13.324Z,19.85
2022-09-05T16:23:27.787Z,19.68
2022-09-05T16:23:54.323Z,19.61
2022-09-05T16:26:33.143Z,19.43
2022-09-05T16:29:43.607Z,19.33
2022-09-05T16:32:21.184Z,19.19
2022-09-05T16:35:17.004Z,19.12
2022-09-05T16:38:09.118Z,19.01
2022-09-05T16:40:45.261Z,18.99
2022-09-05T16:43:29.950Z,18.86
2022-09-05T16:46:21.066Z,18.91
2022-09-05T16:49:11.748Z,18.92
2022-09-05T16:52:08.308Z,18.87
2022-09-05T16:54:59.943Z,18.93
2022-09-05T16:57:40.608Z,19.12
2022-09-05T17:00:13.619Z,19.19
2022-09-05T17:03:28.533Z,19.29
2022-09-05T17:06:25.517Z,19.37
2022-09-05T17:09:12.923Z,19.14
2022-09-05T17:12:00.197Z,19.11
2022-09-05T17:14:39.135Z,19.20
2022-09-05T17:18:19.487Z,18.94
2022-09-05T17:20:22.409Z,19.08
2022-09-05T17:28:29.972Z,19.19
2022-09-05T17:29:25.749Z,19.24
2022-09-05T17:29:30.258Z,19.24
2022-09-05T17:31:58.012Z,19.22
2022-09-05T17:35:17.085Z,19.32
2022-09-05T17:38:37.557Z,19.34
2022-09-05T17:41:48.002Z,19.28
2022-09-05T17:44:32.608Z,19.21
2022-09-05T17:47:36.315Z,19.20
2022-09-05T17:50:45.156Z,19.23
2022-09-05T17:53:25.167Z,19.18
2022-09-05T17:55:58.872Z,18.96
2022-09-05T17:58:49.346Z,19.15
2022-09-05T18:01:33.040Z,19.14
2022-09-05T18:04:18.077Z,19.21
2022-09-05T18:06:59.625Z,19.24
2022-09-05T18:09:50.149Z,19.29
2022-09-05T18:13:31.654Z,19.21
2022-09-05T18:15:41.530Z,19.09
2022-09-05T18:19:28.466Z,18.96
2022-09-05T18:22:00.906Z,19.09
2022-09-05T18:24:48.774Z,19.07
2022-09-05T18:28:04.943Z,19.00
2022-09-05T18:33:54.010Z,18.80
2022-09-05T18:36:25.970Z,18.89
2022-09-05T18:39:38.931Z,18.76
2022-09-05T18:42:34.666Z,18.68
2022-09-05T18:45:16.718Z,18.67
2022-09-05T18:47:59.517Z,18.66
2022-09-05T18:50:41.087Z,18.55
2022-09-05T18:53:13.390Z,18.54
2022-09-05T18:56:19.903Z,18.54
2022-09-05T18:59:10.005Z,18.46
2022-09-05T19:02:32.103Z,18.42
2022-09-05T19:05:28.610Z,18.22
2022-09-05T19:08:06.206Z,18.16
2022-09-05T19:10:41.845Z,18.15
2022-09-05T19:13:44.562Z,18.11
2022-09-05T19:16:47.220Z,18.11
2022-09-05T19:19:24.588Z,18.01
2022-09-05T19:23:02.653Z,18.00
2022-09-05T19:24:53.062Z,17.94
2022-09-05T19:30:00.494Z,17.89
2022-09-05T19:36:58.908Z,17.86
2022-09-05T19:37:10.676Z,17.85
2022-09-05T19:37:23.672Z,17.87
2022-09-05T19:44:29.519Z,17.90
2022-09-05T19:47:47.690Z,17.73
2022-09-05T19:47:51.862Z,17.75
2022-09-05T19:48:34.584Z,17.74
2022-09-05T19:51:26.945Z,17.69
2022-09-05T19:54:04.490Z,17.69
2022-09-05T19:56:46.966Z,17.72
2022-09-05T19:59:39.599Z,17.84
2022-09-05T20:02:20.323Z,17.81
2022-09-05T20:04:56.165Z,17.61
2022-09-05T20:07:30.868Z,17.57
2022-09-05T20:10:05.734Z,17.54
2022-09-05T20:12:42.440Z,17.49
2022-09-05T20:15:37.617Z,17.47
2022-09-05T20:18:37.867Z,17.46
2022-09-05T20:21:35.242Z,17.40
2022-09-05T20:24:06.537Z,17.34
2022-09-05T20:26:37.449Z,17.33
2022-09-05T20:29:09.838Z,17.43
2022-09-05T20:31:39.963Z,17.41
2022-09-05T20:36:21.595Z,17.25
2022-09-05T20:43:10.321Z,17.25
2022-09-05T20:43:35.225Z,17.17
2022-09-05T20:43:35.239Z,16.96
2022-09-05T20:48:48.952Z,16.85
2022-09-05T20:54:08.975Z,16.89
2022-09-05T20:54:25.370Z,16.90
2022-09-05T20:54:48.254Z,16.94
2022-09-05T20:57:28.757Z,16.94
2022-09-05T21:00:08.665Z,16.86
2022-09-05T21:03:01.563Z,16.92
2022-09-05T21:05:35.575Z,16.82
2022-09-05T21:08:21.644Z,16.79
2022-09-05T21:10:57.550Z,16.83
2022-09-05T21:13:32.712Z,16.78
2022-09-05T21:16:06.859Z,16.77
2022-09-05T21:18:45.150Z,16.68
2022-09-05T21:21:34.900Z,16.68
2022-09-05T21:24:16.032Z,16.67
2022-09-05T21:26:50.693Z,16.61
2022-09-05T21:29:34.838Z,16.59
2022-09-05T21:32:11.025Z,16.67
2022-09-05T21:34:55.007Z,16.70
2022-09-05T21:37:28.089Z,16.70
2022-09-05T21:40:00.852Z,16.70
2022-09-05T21:45:35.369Z,16.68
2022-09-05T21:47:48.488Z,16.68
2022-09-05T21:48:26.063Z,16.61
2022-09-05T21:50:59.489Z,16.61
2022-09-05T21:55:02.783Z,16.59
2022-09-05T21:59:21.454Z,16.57
2022-09-05T21:59:46.076Z,16.50
2022-09-05T22:02:17.037Z,16.55
2022-09-05T22:04:47.354Z,16.61
2022-09-05T22:07:27.723Z,16.61
2022-09-05T22:10:06.782Z,16.67
2022-09-05T22:12:39.525Z,16.65
2022-09-05T22:15:28.274Z,16.65
2022-09-05T22:18:16.701Z,16.69
2022-09-05T22:20:53.454Z,16.66
2022-09-05T22:23:48.588Z,16.70
2022-09-05T22:26:19.397Z,16.59
2022-09-05T22:28:51.169Z,16.57
2022-09-05T22:31:22.958Z,16.53
2022-09-05T22:33:52.361Z,16.49
2022-09-05T22:40:30.485Z,16.40
2022-09-05T22:43:01.474Z,16.43
2022-09-05T22:45:31.010Z,16.28
2022-09-05T22:48:07.686Z,16.18
2022-09-05T22:50:36.711Z,16.15
2022-09-05T22:53:07.574Z,16.06
2022-09-05T22:55:38.334Z,16.08
2022-09-05T22:58:10.815Z,16.02
2022-09-05T23:00:44.264Z,15.90
2022-09-05T23:03:13.305Z,15.82
2022-09-05T23:05:41.128Z,15.83
2022-09-05T23:08:12.726Z,15.69
2022-09-05T23:10:41.542Z,15.74
2022-09-05T23:13:11.314Z,15.67
2022-09-05T23:15:40.383Z,15.62
2022-09-05T23:18:09.074Z,15.62
2022-09-05T23:20:39.835Z,15.59
2022-09-05T23:30:09.735Z,15.27
2022-09-05T23:32:44.975Z,15.24
2022-09-05T23:37:15.293Z,15.11
2022-09-05T23:39:43.098Z,15.07
2022-09-05T23:42:12.057Z,15.07
2022-09-05T23:44:40.116Z,15.11
2022-09-05T23:47:08.050Z,15.01
2022-09-05T23:49:36.838Z,15.02
2022-09-05T23:52:04.990Z,14.98
2022-09-05T23:54:33.738Z,14.89
2022-09-05T23:57:04.600Z,14.85
2022-09-05T23:59:33.772Z,14.84
